Time;durP1;ratioP1;P1;durP2;ratioP2;P2;SDS_P1;SDS_P2;PMS_P1;PMS_P2;Temp;Humidity;BMP_temperature;BMP_pressure;BME280_temperature;BME280_humidity;BME280_pressure;Samples;Min_cycle;Max_cycle;Signal;HPM_P1;HPM_P2
2022/10/08 00:01:44;;;;;;;14.13;4.60;;;;;;;;;;5034184;28;20427;-42
2022/10/08 00:04:11;;;;;;;15.47;3.30;;;;;;;;;;5034637;28;20403;-42
2022/10/08 00:06:37;;;;;;;6.33;3.40;;;;;;;;;;5034671;28;20452;-42
2022/10/08 00:09:05;;;;;;;6.57;3.30;;;;;;;;;;5034273;28;20418;-42
2022/10/08 00:11:34;;;;;;;6.47;3.00;;;;;;;;;;5033886;28;20842;-42
2022/10/08 00:14:03;;;;;;;12.27;3.57;;;;;;;;;;5034641;28;20407;-43
2022/10/08 00:16:39;;;;;;;4.87;3.00;;;;;;;;;;5039769;28;20935;-45
2022/10/08 00:19:06;;;;;;;9.77;3.33;;;;;;;;;;5053741;28;20494;-45
2022/10/08 00:21:34;;;;;;;12.93;3.37;;;;;;;;;;5038094;28;20484;-45
2022/10/08 00:24:01;;;;;;;10.60;3.37;;;;;;;;;;5036136;28;20403;-46
2022/10/08 00:26:28;;;;;;;5.63;3.00;;;;;;;;;;5042009;28;20404;-45
2022/10/08 00:28:55;;;;;;;8.03;3.17;;;;;;;;;;5043886;28;20421;-46
2022/10/08 00:31:29;;;;;;;7.53;3.10;;;;;;;;;;5043604;28;20888;-45
2022/10/08 00:33:57;;;;;;;9.40;3.27;;;;;;;;;;5042058;28;20819;-44
2022/10/08 00:36:24;;;;;;;6.90;3.67;;;;;;;;;;5043531;28;20492;-45
2022/10/08 00:38:57;;;;;;;7.77;3.20;;;;;;;;;;5053791;28;20519;-46
2022/10/08 00:41:25;;;;;;;6.07;2.80;;;;;;;;;;5052933;28;20437;-47
2022/10/08 00:43:53;;;;;;;9.07;3.53;;;;;;;;;;5053885;28;20400;-47
2022/10/08 00:46:28;;;;;;;9.57;3.67;;;;;;;;;;5052751;28;20402;-45
2022/10/08 00:49:05;;;;;;;10.80;3.53;;;;;;;;;;5053486;28;20531;-46
2022/10/08 00:51:33;;;;;;;6.93;3.00;;;;;;;;;;5053113;28;20408;-46
2022/10/08 00:54:03;;;;;;;7.80;3.20;;;;;;;;;;5053685;28;20414;-45
2022/10/08 00:56:30;;;;;;;6.50;3.90;;;;;;;;;;5053587;28;20406;-45
2022/10/08 00:58:56;;;;;;;11.70;3.80;;;;;;;;;;5053066;28;20487;-45
2022/10/08 01:01:22;;;;;;;7.63;3.10;;;;;;;;;;5046896;28;20402;-45
2022/10/08 01:03:48;;;;;;;5.37;2.83;;;;;;;;;;5034972;28;20422;-44
2022/10/08 01:06:32;;;;;;;9.90;3.63;;;;;;;;;;5051820;28;20402;-45
2022/10/08 01:09:11;;;;;;;14.97;3.50;;;;;;;;;;5050431;28;20831;-43
2022/10/08 01:11:45;;;;;;;9.40;3.03;;;;;;;;;;5050785;28;20912;-46
2022/10/08 01:14:30;;;;;;;4.60;2.60;;;;;;;;;;5049697;28;20488;-44
2022/10/08 01:17:15;;;;;;;5.93;2.80;;;;;;;;;;5051167;28;20537;-45
2022/10/08 01:19:41;;;;;;;7.00;2.90;;;;;;;;;;5050986;28;20866;-44
2022/10/08 01:22:10;;;;;;;8.07;2.70;;;;;;;;;;5051681;28;20895;-46
2022/10/08 01:27:42;;;;;;;6.90;3.00;;;;;;;;;;5053323;28;20835;-46
2022/10/08 01:30:11;;;;;;;6.40;3.23;;;;;;;;;;5052423;28;20489;-45
2022/10/08 01:32:41;;;;;;;7.30;3.17;;;;;;;;;;5052130;28;20774;-44
2022/10/08 01:35:10;;;;;;;10.90;4.10;;;;;;;;;;5052879;28;20497;-45
2022/10/08 01:37:38;;;;;;;7.40;2.77;;;;;;;;;;5052899;28;20481;-45
2022/10/08 01:40:08;;;;;;;9.07;2.53;;;;;;;;;;5052566;28;20401;-44
2022/10/08 01:42:34;;;;;;;9.40;3.03;;;;;;;;;;5052384;28;20397;-43
2022/10/08 01:45:03;;;;;;;10.30;3.03;;;;;;;;;;5052639;28;20398;-45
2022/10/08 01:47:30;;;;;;;9.67;3.00;;;;;;;;;;5052474;28;20421;-44
2022/10/08 01:50:05;;;;;;;13.53;3.97;;;;;;;;;;5052537;28;20405;-46
2022/10/08 01:52:40;;;;;;;13.20;3.00;;;;;;;;;;5052171;28;20397;-45
2022/10/08 01:55:10;;;;;;;8.80;2.80;;;;;;;;;;5052551;28;20408;-46
2022/10/08 01:57:38;;;;;;;7.40;2.83;;;;;;;;;;5052329;28;20499;-46
2022/10/08 02:00:08;;;;;;;4.33;2.20;;;;;;;;;;5052152;28;20455;-46
2022/10/08 02:02:34;;;;;;;12.90;3.33;;;;;;;;;;5051807;28;20417;-45
2022/10/08 02:05:00;;;;;;;18.87;3.20;;;;;;;;;;5052350;28;20399;-45
2022/10/08 02:07:30;;;;;;;7.50;2.87;;;;;;;;;;5052126;28;20501;-44
2022/10/08 02:10:22;;;;;;;9.00;3.00;;;;;;;;;;5052536;28;20451;-45
2022/10/08 02:12:48;;;;;;;7.30;2.80;;;;;;;;;;5051300;28;20521;-44
2022/10/08 02:15:19;;;;;;;4.27;2.80;;;;;;;;;;5052134;28;20421;-45
2022/10/08 02:17:53;;;;;;;10.10;3.03;;;;;;;;;;5051911;28;20460;-45
2022/10/08 02:20:36;;;;;;;10.63;2.83;;;;;;;;;;5051981;28;20402;-45
2022/10/08 02:23:23;;;;;;;5.83;3.07;;;;;;;;;;5052070;28;20409;-45
2022/10/08 02:25:50;;;;;;;7.37;2.80;;;;;;;;;;5051923;28;20406;-45
2022/10/08 02:28:19;;;;;;;5.60;2.87;;;;;;;;;;5051883;28;20457;-46
2022/10/08 02:30:48;;;;;;;9.73;2.93;;;;;;;;;;5051325;28;20776;-45
2022/10/08 02:33:21;;;;;;;10.90;3.00;;;;;;;;;;5051852;28;20814;-44
2022/10/08 02:35:55;;;;;;;4.60;2.47;;;;;;;;;;5051793;28;20409;-46
2022/10/08 02:38:24;;;;;;;8.63;2.87;;;;;;;;;;5051623;28;20469;-47
2022/10/08 02:40:52;;;;;;;4.00;2.33;;;;;;;;;;5051220;28;20407;-46
2022/10/08 02:43:21;;;;;;;5.00;2.40;;;;;;;;;;5051710;28;20874;-47
2022/10/08 02:45:51;;;;;;;6.33;2.97;;;;;;;;;;5051719;28;20409;-45
2022/10/08 02:48:24;;;;;;;10.53;3.37;;;;;;;;;;5051687;28;20422;-44
2022/10/08 02:50:52;;;;;;;5.63;2.40;;;;;;;;;;5051242;28;20451;-46
2022/10/08 02:53:19;;;;;;;15.17;3.20;;;;;;;;;;5051686;28;20424;-46
2022/10/08 02:55:53;;;;;;;6.17;3.30;;;;;;;;;;5051629;28;20451;-43
2022/10/08 02:58:19;;;;;;;7.87;2.50;;;;;;;;;;5051401;28;20455;-44
2022/10/08 03:00:54;;;;;;;9.90;2.87;;;;;;;;;;5051062;28;20402;-46
2022/10/08 03:03:27;;;;;;;4.67;2.43;;;;;;;;;;5051526;28;20512;-45
2022/10/08 03:05:53;;;;;;;9.10;2.60;;;;;;;;;;5051499;28;20405;-46
2022/10/08 03:08:20;;;;;;;10.10;2.73;;;;;;;;;;5051402;28;20444;-46
2022/10/08 03:10:46;;;;;;;8.13;2.80;;;;;;;;;;5050823;28;20470;-46
2022/10/08 03:13:12;;;;;;;6.13;2.20;;;;;;;;;;5051444;28;20902;-45
2022/10/08 03:15:40;;;;;;;14.70;3.27;;;;;;;;;;5051467;28;20492;-46
2022/10/08 03:18:07;;;;;;;7.73;2.97;;;;;;;;;;5051208;28;20545;-44
2022/10/08 03:20:38;;;;;;;5.83;2.40;;;;;;;;;;5050743;28;20398;-45
2022/10/08 03:23:04;;;;;;;8.33;2.90;;;;;;;;;;5051339;28;20456;-45
2022/10/08 03:25:30;;;;;;;8.43;2.20;;;;;;;;;;5051346;28;20885;-46
2022/10/08 03:27:56;;;;;;;8.33;2.90;;;;;;;;;;5051213;28;20523;-46
2022/10/08 03:30:22;;;;;;;3.47;2.20;;;;;;;;;;5051137;28;20444;-44
2022/10/08 03:32:48;;;;;;;7.10;2.67;;;;;;;;;;5051066;28;20905;-45
2022/10/08 03:35:14;;;;;;;7.20;3.67;;;;;;;;;;5051266;28;20460;-44
2022/10/08 03:37:40;;;;;;;8.77;2.30;;;;;;;;;;5051531;28;20554;-46
2022/10/08 03:40:06;;;;;;;5.47;2.60;;;;;;;;;;5051170;28;20398;-45
2022/10/08 03:42:32;;;;;;;6.03;2.50;;;;;;;;;;5050831;28;20798;-47
2022/10/08 03:45:00;;;;;;;10.40;3.30;;;;;;;;;;5051407;28;20395;-46
2022/10/08 03:47:26;;;;;;;5.23;2.63;;;;;;;;;;5051194;28;20402;-46
2022/10/08 03:49:52;;;;;;;6.07;2.43;;;;;;;;;;5050902;28;21159;-47
2022/10/08 03:52:18;;;;;;;4.20;2.97;;;;;;;;;;5050651;28;20412;-45
2022/10/08 03:54:44;;;;;;;7.30;3.60;;;;;;;;;;5053264;28;20924;-44
2022/10/08 03:57:09;;;;;;;8.63;3.60;;;;;;;;;;5054275;28;20949;-44
2022/10/08 03:59:35;;;;;;;9.37;3.67;;;;;;;;;;5054681;28;20874;-46
2022/10/08 04:02:01;;;;;;;7.47;3.90;;;;;;;;;;5054188;28;20886;-45
2022/10/08 04:04:27;;;;;;;7.73;4.00;;;;;;;;;;5055117;28;20840;-44
2022/10/08 04:06:53;;;;;;;9.90;4.27;;;;;;;;;;5054459;28;20428;-45
2022/10/08 04:09:19;;;;;;;12.57;3.83;;;;;;;;;;5054592;28;20426;-43
2022/10/08 04:11:45;;;;;;;8.50;3.90;;;;;;;;;;5053896;28;20397;-43
2022/10/08 04:14:11;;;;;;;7.13;3.90;;;;;;;;;;5054480;28;20460;-45
2022/10/08 04:16:37;;;;;;;10.37;3.60;;;;;;;;;;5054339;28;20402;-45
2022/10/08 04:19:03;;;;;;;8.13;3.70;;;;;;;;;;5054114;28;20538;-45
2022/10/08 04:21:30;;;;;;;12.00;3.80;;;;;;;;;;5053792;28;20905;-46
2022/10/08 04:23:56;;;;;;;9.20;4.10;;;;;;;;;;5054291;28;20390;-46
2022/10/08 04:26:22;;;;;;;5.30;3.63;;;;;;;;;;5054335;28;20895;-46
2022/10/08 04:28:48;;;;;;;11.57;5.13;;;;;;;;;;5054217;28;20513;-46
2022/10/08 04:31:16;;;;;;;6.47;4.00;;;;;;;;;;5053564;28;20408;-45
2022/10/08 04:33:42;;;;;;;9.87;3.83;;;;;;;;;;5054097;28;20398;-45
2022/10/08 04:36:09;;;;;;;15.73;4.80;;;;;;;;;;5053967;28;20493;-47
2022/10/08 04:38:36;;;;;;;9.53;4.77;;;;;;;;;;5053957;28;20458;-44
2022/10/08 04:41:02;;;;;;;10.33;4.40;;;;;;;;;;5053360;28;20408;-47
2022/10/08 04:43:29;;;;;;;13.10;4.90;;;;;;;;;;5053920;28;20398;-47
2022/10/08 04:45:55;;;;;;;6.03;3.90;;;;;;;;;;5053887;28;20395;-46
2022/10/08 04:48:20;;;;;;;8.50;3.70;;;;;;;;;;5053641;28;20422;-45
2022/10/08 04:50:46;;;;;;;9.97;4.80;;;;;;;;;;5053068;28;20469;-46
2022/10/08 04:53:12;;;;;;;9.53;4.50;;;;;;;;;;5053849;28;20421;-45
2022/10/08 04:55:38;;;;;;;9.23;4.93;;;;;;;;;;5053756;28;20402;-45
2022/10/08 04:58:05;;;;;;;7.97;4.77;;;;;;;;;;5053533;28;20518;-47
2022/10/08 05:00:31;;;;;;;8.93;4.60;;;;;;;;;;5052920;28;20488;-46
2022/10/08 05:02:57;;;;;;;8.10;5.63;;;;;;;;;;5053386;28;20425;-44
2022/10/08 05:05:23;;;;;;;9.40;4.93;;;;;;;;;;5052337;28;20410;-46
2022/10/08 05:07:49;;;;;;;8.90;4.30;;;;;;;;;;5053163;28;20467;-44
2022/10/08 05:10:15;;;;;;;7.77;4.70;;;;;;;;;;5053217;28;20483;-44
2022/10/08 05:12:41;;;;;;;19.73;5.47;;;;;;;;;;5052917;28;20479;-44
2022/10/08 05:15:08;;;;;;;10.23;4.90;;;;;;;;;;5053303;28;20839;-44
2022/10/08 05:17:34;;;;;;;10.13;4.33;;;;;;;;;;5052997;28;20479;-45
2022/10/08 05:20:00;;;;;;;8.13;5.07;;;;;;;;;;5052859;28;20891;-45
2022/10/08 05:22:26;;;;;;;10.30;5.57;;;;;;;;;;5052745;28;20405;-44
2022/10/08 05:24:52;;;;;;;9.20;5.30;;;;;;;;;;5053044;28;20477;-46
2022/10/08 05:27:18;;;;;;;8.40;5.97;;;;;;;;;;5053011;28;20502;-46
2022/10/08 05:29:43;;;;;;;9.60;5.50;;;;;;;;;;5052731;28;20402;-46
2022/10/08 05:32:09;;;;;;;8.07;7.27;;;;;;;;;;5052503;28;20410;-46
2022/10/08 05:34:35;;;;;;;9.70;5.50;;;;;;;;;;5052828;28;20402;-46
2022/10/08 05:37:01;;;;;;;7.57;5.40;;;;;;;;;;5052864;28;20909;-46
2022/10/08 05:39:27;;;;;;;10.33;5.30;;;;;;;;;;5052732;28;20495;-45
2022/10/08 05:41:53;;;;;;;9.30;6.83;;;;;;;;;;5052175;28;20516;-45
2022/10/08 05:44:20;;;;;;;9.90;6.87;;;;;;;;;;5052822;28;20457;-43
2022/10/08 05:46:45;;;;;;;9.83;7.07;;;;;;;;;;5052585;28;20485;-44
2022/10/08 05:49:19;;;;;;;11.47;8.70;;;;;;;;;;5052421;28;20512;-45
2022/10/08 05:51:45;;;;;;;13.00;8.70;;;;;;;;;;5052063;28;20401;-46
2022/10/08 05:54:11;;;;;;;15.83;9.27;;;;;;;;;;5052562;28;20401;-47
2022/10/08 05:56:38;;;;;;;14.90;9.00;;;;;;;;;;5052545;28;20457;-48
2022/10/08 05:59:05;;;;;;;13.70;9.20;;;;;;;;;;5052229;28;20452;-44
2022/10/08 06:01:31;;;;;;;12.10;8.40;;;;;;;;;;5051781;28;20402;-43
2022/10/08 06:04:01;;;;;;;11.40;8.03;;;;;;;;;;5052230;28;20426;-45
2022/10/08 06:06:28;;;;;;;10.90;7.00;;;;;;;;;;5052509;28;20412;-46
2022/10/08 06:08:54;;;;;;;14.57;8.47;;;;;;;;;;5052399;28;20507;-46
2022/10/08 06:11:21;;;;;;;11.33;8.37;;;;;;;;;;5050909;28;20402;-47
2022/10/08 06:13:46;;;;;;;9.13;7.67;;;;;;;;;;5051440;28;20787;-47
2022/10/08 06:16:12;;;;;;;13.60;7.60;;;;;;;;;;5051497;28;20414;-45
2022/10/08 06:18:40;;;;;;;15.83;7.60;;;;;;;;;;5051197;28;21003;-45
2022/10/08 06:21:13;;;;;;;11.57;7.00;;;;;;;;;;5050886;28;20906;-46
2022/10/08 06:23:40;;;;;;;11.70;7.63;;;;;;;;;;5051373;28;20397;-45
2022/10/08 06:26:07;;;;;;;12.77;7.57;;;;;;;;;;5051411;28;20413;-45
2022/10/08 06:28:34;;;;;;;14.97;8.13;;;;;;;;;;5051010;28;20935;-45
2022/10/08 06:31:02;;;;;;;14.63;8.53;;;;;;;;;;5050801;28;20431;-46
2022/10/08 06:33:28;;;;;;;11.60;7.30;;;;;;;;;;5051337;28;20808;-45
2022/10/08 06:35:54;;;;;;;15.53;8.33;;;;;;;;;;5051450;28;20459;-46
2022/10/08 06:38:20;;;;;;;13.87;8.83;;;;;;;;;;5051512;28;20460;-45
2022/10/08 06:40:46;;;;;;;9.80;7.33;;;;;;;;;;5042217;28;20760;-45
2022/10/08 06:43:13;;;;;;;13.30;8.50;;;;;;;;;;5042212;28;20452;-45
2022/10/08 06:45:39;;;;;;;13.10;8.80;;;;;;;;;;5051568;28;20428;-47
2022/10/08 06:48:05;;;;;;;19.97;8.60;;;;;;;;;;5051825;28;20509;-46
2022/10/08 06:50:32;;;;;;;18.03;8.30;;;;;;;;;;5051046;28;20463;-44
2022/10/08 06:52:58;;;;;;;16.73;9.70;;;;;;;;;;5051498;28;20539;-47
2022/10/08 06:55:24;;;;;;;16.30;9.13;;;;;;;;;;5051653;28;20497;-46
2022/10/08 06:57:50;;;;;;;15.97;9.40;;;;;;;;;;5051192;28;20542;-45
2022/10/08 07:00:16;;;;;;;15.00;8.20;;;;;;;;;;5049679;28;20414;-44
2022/10/08 07:02:43;;;;;;;15.80;8.20;;;;;;;;;;5050192;28;20420;-43
2022/10/08 07:05:09;;;;;;;16.00;9.60;;;;;;;;;;5048688;28;20786;-43
2022/10/08 07:07:35;;;;;;;15.60;9.20;;;;;;;;;;5050414;28;20430;-43
2022/10/08 07:10:02;;;;;;;11.17;8.57;;;;;;;;;;5050568;28;20416;-43
2022/10/08 07:12:28;;;;;;;15.70;9.97;;;;;;;;;;5051184;28;20410;-43
2022/10/08 07:14:54;;;;;;;14.20;9.23;;;;;;;;;;5050974;28;20405;-43
2022/10/08 07:17:21;;;;;;;15.43;9.60;;;;;;;;;;5051326;28;20522;-43
2022/10/08 07:19:47;;;;;;;14.47;10.20;;;;;;;;;;5050252;28;20402;-43
2022/10/08 07:22:13;;;;;;;12.27;9.27;;;;;;;;;;5051071;28;20408;-43
2022/10/08 07:24:39;;;;;;;16.97;9.80;;;;;;;;;;5051226;28;20394;-43
2022/10/08 07:27:05;;;;;;;17.00;10.30;;;;;;;;;;5051335;28;20488;-43
2022/10/08 07:29:32;;;;;;;16.60;9.77;;;;;;;;;;5052912;28;20418;-43
2022/10/08 07:31:58;;;;;;;14.67;9.40;;;;;;;;;;5054605;28;20417;-42
2022/10/08 07:34:24;;;;;;;25.63;11.43;;;;;;;;;;5054025;28;20877;-43
2022/10/08 07:36:51;;;;;;;15.17;10.47;;;;;;;;;;5055172;28;20830;-42
2022/10/08 07:39:20;;;;;;;19.17;11.57;;;;;;;;;;5054927;28;20465;-43
2022/10/08 07:41:46;;;;;;;14.90;10.93;;;;;;;;;;5054460;28;20459;-43
2022/10/08 07:44:14;;;;;;;17.00;12.07;;;;;;;;;;5054725;28;20897;-43
2022/10/08 07:46:44;;;;;;;33.50;13.20;;;;;;;;;;5054963;28;20905;-43
2022/10/08 07:49:10;;;;;;;15.73;12.20;;;;;;;;;;5054829;28;20425;-43
2022/10/08 07:51:36;;;;;;;18.43;13.60;;;;;;;;;;5054352;28;20399;-43
2022/10/08 07:54:03;;;;;;;18.73;12.50;;;;;;;;;;5054727;28;20415;-43
2022/10/08 07:56:30;;;;;;;15.90;12.10;;;;;;;;;;5054815;28;20403;-43
2022/10/08 07:58:57;;;;;;;17.33;12.00;;;;;;;;;;5054414;28;20462;-43
2022/10/08 08:01:29;;;;;;;17.97;13.30;;;;;;;;;;5054066;28;20403;-43
2022/10/08 08:03:58;;;;;;;24.10;13.40;;;;;;;;;;5054485;28;20933;-43
2022/10/08 08:06:24;;;;;;;22.17;13.93;;;;;;;;;;5054692;28;20402;-43
2022/10/08 08:08:50;;;;;;;22.53;14.30;;;;;;;;;;5054377;28;20994;-43
2022/10/08 08:11:17;;;;;;;31.97;16.70;;;;;;;;;;5053850;28;20430;-43
2022/10/08 08:13:43;;;;;;;21.67;14.40;;;;;;;;;;5054438;28;20483;-43
2022/10/08 08:16:13;;;;;;;15.33;13.33;;;;;;;;;;5054235;28;20410;-43
2022/10/08 08:18:40;;;;;;;21.30;14.27;;;;;;;;;;5054276;28;20466;-43
2022/10/08 08:21:08;;;;;;;25.00;14.40;;;;;;;;;;5053838;28;20399;-43
2022/10/08 08:23:35;;;;;;;21.07;12.90;;;;;;;;;;5054388;28;20466;-43
2022/10/08 08:26:01;;;;;;;18.93;13.57;;;;;;;;;;5053937;28;20401;-43
2022/10/08 08:28:27;;;;;;;16.00;12.27;;;;;;;;;;5054086;28;20507;-43
2022/10/08 08:30:56;;;;;;;15.13;12.40;;;;;;;;;;5053593;28;20432;-43
2022/10/08 08:33:21;;;;;;;21.47;13.93;;;;;;;;;;5054153;28;20411;-43
2022/10/08 08:35:54;;;;;;;23.00;14.67;;;;;;;;;;5054034;28;20376;-43
2022/10/08 08:38:20;;;;;;;19.77;12.87;;;;;;;;;;5053824;28;20834;-43
2022/10/08 08:40:47;;;;;;;18.00;12.37;;;;;;;;;;5052127;28;20492;-42
2022/10/08 08:43:13;;;;;;;19.77;12.97;;;;;;;;;;5054008;28;20860;-43
2022/10/08 08:45:40;;;;;;;17.77;12.43;;;;;;;;;;5053751;28;20411;-43
2022/10/08 08:48:15;;;;;;;21.07;13.50;;;;;;;;;;5053634;28;20520;-43
2022/10/08 08:50:42;;;;;;;19.47;13.40;;;;;;;;;;5053204;28;20746;-43
2022/10/08 08:53:10;;;;;;;19.70;13.17;;;;;;;;;;5053797;28;20374;-43
2022/10/08 08:55:39;;;;;;;24.23;13.77;;;;;;;;;;5053637;28;20411;-43
2022/10/08 08:58:24;;;;;;;21.87;14.03;;;;;;;;;;5053177;28;20463;-43
2022/10/08 09:01:10;;;;;;;26.03;14.83;;;;;;;;;;5052976;28;20401;-43
2022/10/08 09:03:48;;;;;;;24.93;14.83;;;;;;;;;;5053201;28;20412;-43
2022/10/08 09:06:16;;;;;;;21.30;13.30;;;;;;;;;;5053239;28;20410;-43
2022/10/08 09:09:00;;;;;;;23.97;13.57;;;;;;;;;;5053351;28;20424;-43
2022/10/08 09:11:28;;;;;;;20.40;14.00;;;;;;;;;;5051191;28;20875;-43
2022/10/08 09:13:59;;;;;;;19.47;12.37;;;;;;;;;;5053264;28;20372;-43
2022/10/08 09:16:27;;;;;;;22.33;13.20;;;;;;;;;;5053166;28;20417;-43
2022/10/08 09:18:53;;;;;;;22.47;13.57;;;;;;;;;;5053074;28;20550;-43
2022/10/08 09:21:19;;;;;;;24.60;12.33;;;;;;;;;;5052547;28;20364;-43
2022/10/08 09:23:45;;;;;;;26.60;11.50;;;;;;;;;;5053172;28;20364;-43
2022/10/08 09:26:15;;;;;;;19.03;11.70;;;;;;;;;;5052946;28;20425;-43
2022/10/08 09:28:43;;;;;;;18.17;11.97;;;;;;;;;;5052907;28;20452;-43
2022/10/08 09:31:31;;;;;;;15.20;11.27;;;;;;;;;;5052339;28;20381;-43
2022/10/08 09:34:03;;;;;;;13.90;11.10;;;;;;;;;;5051496;28;20460;-43
2022/10/08 09:36:48;;;;;;;20.83;11.80;;;;;;;;;;5052717;28;20371;-43
2022/10/08 09:39:17;;;;;;;15.33;10.40;;;;;;;;;;5052607;28;20463;-43
2022/10/08 09:41:44;;;;;;;17.17;11.10;;;;;;;;;;5052259;28;20427;-43
2022/10/08 09:44:21;;;;;;;16.27;11.30;;;;;;;;;;5051143;28;20385;-45
2022/10/08 09:46:48;;;;;;;15.30;10.43;;;;;;;;;;5041348;28;20499;-43
2022/10/08 09:49:25;;;;;;;15.10;9.63;;;;;;;;;;5052443;28;20939;-43
2022/10/08 09:51:51;;;;;;;17.23;8.53;;;;;;;;;;5051518;28;20387;-43
2022/10/08 09:54:24;;;;;;;16.23;8.23;;;;;;;;;;5052745;28;20405;-43
2022/10/08 09:56:55;;;;;;;14.13;8.53;;;;;;;;;;5052340;28;20401;-43
2022/10/08 09:59:22;;;;;;;14.50;9.23;;;;;;;;;;5053315;28;20453;-46
2022/10/08 10:01:48;;;;;;;11.20;7.90;;;;;;;;;;5051713;28;20394;-45
2022/10/08 10:04:41;;;;;;;14.83;8.80;;;;;;;;;;5052380;28;20862;-47
2022/10/08 10:07:07;;;;;;;11.20;7.37;;;;;;;;;;5051082;28;20389;-42
2022/10/08 10:09:37;;;;;;;15.77;7.00;;;;;;;;;;5052205;28;20791;-43
2022/10/08 10:12:06;;;;;;;12.70;6.67;;;;;;;;;;5051731;28;20377;-43
2022/10/08 10:14:38;;;;;;;12.33;7.17;;;;;;;;;;5052009;28;21073;-42
2022/10/08 10:17:08;;;;;;;11.47;6.97;;;;;;;;;;5051923;28;20409;-43
2022/10/08 10:19:58;;;;;;;10.37;6.33;;;;;;;;;;5052192;28;20472;-43
2022/10/08 10:22:26;;;;;;;11.60;6.60;;;;;;;;;;5028813;28;20397;-43
2022/10/08 10:25:11;;;;;;;10.93;7.07;;;;;;;;;;5031954;28;20370;-43
2022/10/08 10:28:12;;;;;;;9.60;7.37;;;;;;;;;;5031801;28;20458;-43
2022/10/08 10:30:50;;;;;;;13.07;6.17;;;;;;;;;;5029282;28;20464;-43
2022/10/08 10:33:20;;;;;;;12.13;6.83;;;;;;;;;;5049076;28;20903;-43
2022/10/08 10:35:58;;;;;;;11.87;6.87;;;;;;;;;;5052139;28;20531;-43
2022/10/08 10:38:30;;;;;;;14.73;5.83;;;;;;;;;;5051422;28;20463;-43
2022/10/08 10:41:15;;;;;;;9.17;5.77;;;;;;;;;;5051138;28;20476;-43
2022/10/08 10:43:52;;;;;;;10.47;6.13;;;;;;;;;;5050177;28;20429;-43
2022/10/08 10:46:48;;;;;;;11.53;7.00;;;;;;;;;;5051624;28;20382;-42
2022/10/08 10:49:18;;;;;;;12.33;8.10;;;;;;;;;;5051393;28;21004;-42
2022/10/08 10:52:01;;;;;;;10.77;6.07;;;;;;;;;;5051142;28;20479;-43
2022/10/08 10:54:45;;;;;;;10.83;7.10;;;;;;;;;;5051478;28;20499;-43
2022/10/08 10:57:15;;;;;;;5.50;4.43;;;;;;;;;;5051243;28;20415;-43
2022/10/08 10:59:46;;;;;;;5.70;4.70;;;;;;;;;;5051504;28;20414;-43
2022/10/08 11:02:34;;;;;;;9.37;3.97;;;;;;;;;;5050807;28;20429;-43
2022/10/08 11:05:04;;;;;;;4.53;3.33;;;;;;;;;;5054085;28;20765;-43
2022/10/08 11:07:33;;;;;;;7.63;3.47;;;;;;;;;;5055638;28;20451;-42
2022/10/08 11:10:10;;;;;;;5.53;3.50;;;;;;;;;;5055478;28;20469;-44
2022/10/08 11:12:42;;;;;;;4.17;3.30;;;;;;;;;;5053951;28;20478;-43
2022/10/08 11:15:17;;;;;;;5.60;3.03;;;;;;;;;;5055441;28;20536;-44
2022/10/08 11:17:43;;;;;;;8.83;3.70;;;;;;;;;;5054879;28;20489;-47
2022/10/08 11:20:17;;;;;;;7.57;3.63;;;;;;;;;;5055126;28;20466;-46
2022/10/08 11:22:43;;;;;;;10.40;3.77;;;;;;;;;;5054955;28;20397;-42
2022/10/08 11:25:18;;;;;;;6.10;3.67;;;;;;;;;;5055114;28;20745;-42
2022/10/08 11:28:03;;;;;;;5.87;3.30;;;;;;;;;;5054737;28;20403;-42
2022/10/08 11:30:41;;;;;;;7.50;2.93;;;;;;;;;;5055159;28;20514;-42
2022/10/08 11:33:10;;;;;;;6.80;3.00;;;;;;;;;;5055024;28;20398;-42
2022/10/08 11:35:53;;;;;;;6.77;2.67;;;;;;;;;;5053642;28;20885;-42
2022/10/08 11:38:20;;;;;;;5.10;2.80;;;;;;;;;;5053823;28;20956;-42
2022/10/08 11:41:05;;;;;;;14.47;2.83;;;;;;;;;;5054142;28;20375;-42
2022/10/08 11:43:40;;;;;;;3.27;2.97;;;;;;;;;;5053642;28;20410;-42
2022/10/08 11:46:32;;;;;;;2.77;2.53;;;;;;;;;;5054744;28;20378;-42
2022/10/08 11:49:13;;;;;;;7.43;2.50;;;;;;;;;;5054174;28;20402;-42
2022/10/08 11:51:40;;;;;;;6.47;2.07;;;;;;;;;;5054156;28;20388;-42
2022/10/08 11:54:25;;;;;;;8.50;3.03;;;;;;;;;;5054602;28;20407;-42
2022/10/08 11:57:09;;;;;;;2.60;1.80;;;;;;;;;;5054554;28;20865;-42
2022/10/08 11:59:35;;;;;;;2.43;1.80;;;;;;;;;;5054243;28;20954;-42
2022/10/08 12:02:06;;;;;;;4.77;1.67;;;;;;;;;;5053887;28;20410;-43
2022/10/08 12:04:36;;;;;;;4.97;2.27;;;;;;;;;;5054452;28;20942;-42
2022/10/08 12:07:08;;;;;;;7.73;2.17;;;;;;;;;;5054416;28;20507;-42
2022/10/08 12:09:52;;;;;;;4.80;1.67;;;;;;;;;;5053841;28;20488;-42
2022/10/08 12:12:18;;;;;;;3.77;1.30;;;;;;;;;;5053964;28;20845;-43
2022/10/08 12:14:45;;;;;;;6.30;1.60;;;;;;;;;;5053669;28;21073;-43
2022/10/08 12:17:12;;;;;;;1.70;1.30;;;;;;;;;;5054095;28;20406;-43
2022/10/08 12:19:38;;;;;;;5.73;1.97;;;;;;;;;;5053780;28;20433;-43
2022/10/08 12:22:24;;;;;;;3.93;1.70;;;;;;;;;;5053483;28;20746;-42
2022/10/08 12:24:51;;;;;;;2.37;1.50;;;;;;;;;;5054068;28;20443;-42
2022/10/08 12:27:28;;;;;;;4.00;1.57;;;;;;;;;;5054027;28;20405;-43
2022/10/08 12:29:58;;;;;;;9.50;2.03;;;;;;;;;;5053544;28;20485;-43
2022/10/08 12:32:25;;;;;;;5.93;2.50;;;;;;;;;;5053422;28;20416;-43
2022/10/08 12:34:52;;;;;;;3.17;1.73;;;;;;;;;;5053899;28;20948;-43
2022/10/08 12:37:38;;;;;;;2.90;1.63;;;;;;;;;;5053670;28;20929;-43
2022/10/08 12:40:12;;;;;;;3.77;2.00;;;;;;;;;;5053583;28;20789;-43
2022/10/08 12:42:39;;;;;;;3.20;1.40;;;;;;;;;;5053487;28;20507;-43
2022/10/08 12:45:10;;;;;;;2.00;1.60;;;;;;;;;;5053657;28;20396;-42
2022/10/08 12:47:59;;;;;;;4.17;1.60;;;;;;;;;;5053435;28;20425;-43
2022/10/08 12:50:44;;;;;;;3.97;1.27;;;;;;;;;;5049185;28;20419;-43
2022/10/08 12:53:15;;;;;;;5.13;1.30;;;;;;;;;;5053526;28;21149;-43
2022/10/08 12:55:45;;;;;;;1.80;1.23;;;;;;;;;;5053672;28;20411;-43
2022/10/08 12:58:15;;;;;;;4.30;1.30;;;;;;;;;;5053363;28;20832;-43
2022/10/08 13:00:44;;;;;;;4.77;1.53;;;;;;;;;;5053020;28;20409;-42
2022/10/08 13:03:16;;;;;;;4.07;1.83;;;;;;;;;;5053439;28;20898;-44
2022/10/08 13:05:42;;;;;;;2.30;1.40;;;;;;;;;;5053336;28;20429;-43
2022/10/08 13:08:25;;;;;;;2.60;1.30;;;;;;;;;;5053348;28;20952;-43
2022/10/08 13:10:51;;;;;;;8.30;1.70;;;;;;;;;;5052828;28;20897;-44
2022/10/08 13:13:33;;;;;;;4.80;1.30;;;;;;;;;;5053469;28;20490;-43
2022/10/08 13:16:01;;;;;;;3.67;1.30;;;;;;;;;;5053492;28;20759;-44
2022/10/08 13:18:29;;;;;;;4.67;1.33;;;;;;;;;;5053090;28;20596;-43
2022/10/08 13:20:56;;;;;;;4.73;1.07;;;;;;;;;;5052576;28;20927;-43
2022/10/08 13:23:31;;;;;;;1.70;1.20;;;;;;;;;;5053162;28;20433;-43
2022/10/08 13:25:59;;;;;;;4.60;1.60;;;;;;;;;;5052811;28;20407;-43
2022/10/08 13:28:26;;;;;;;4.77;1.50;;;;;;;;;;5052935;28;20421;-43
2022/10/08 13:30:55;;;;;;;1.43;1.17;;;;;;;;;;5052312;28;20412;-43
2022/10/08 13:33:22;;;;;;;4.60;1.70;;;;;;;;;;5052911;28;20766;-43
2022/10/08 13:35:58;;;;;;;7.57;1.60;;;;;;;;;;5053225;28;20413;-43
2022/10/08 13:38:26;;;;;;;2.30;1.40;;;;;;;;;;5052837;28;20506;-43
2022/10/08 13:40:53;;;;;;;7.37;1.47;;;;;;;;;;5038159;28;20503;-43
2022/10/08 13:43:20;;;;;;;5.23;2.00;;;;;;;;;;5032687;28;20888;-43
2022/10/08 13:45:49;;;;;;;3.00;1.30;;;;;;;;;;5032770;28;20403;-43
2022/10/08 13:48:15;;;;;;;4.17;1.77;;;;;;;;;;5032605;28;20422;-43
2022/10/08 13:50:51;;;;;;;2.03;1.50;;;;;;;;;;5032354;28;20399;-43
2022/10/08 13:53:20;;;;;;;4.50;1.53;;;;;;;;;;5032678;28;20399;-43
2022/10/08 13:55:48;;;;;;;4.33;1.23;;;;;;;;;;5037460;28;20421;-43
2022/10/08 13:58:15;;;;;;;3.17;1.70;;;;;;;;;;5052203;28;20462;-43
2022/10/08 14:00:41;;;;;;;5.80;1.60;;;;;;;;;;5051994;28;20399;-43
2022/10/08 14:03:08;;;;;;;7.70;2.03;;;;;;;;;;5051825;28;20456;-43
2022/10/08 14:05:39;;;;;;;3.70;1.60;;;;;;;;;;5052070;28;20402;-43
2022/10/08 14:08:10;;;;;;;5.23;1.77;;;;;;;;;;5050572;28;20414;-43
2022/10/08 14:10:39;;;;;;;7.77;1.70;;;;;;;;;;5050399;28;20448;-43
2022/10/08 14:13:05;;;;;;;1.23;1.10;;;;;;;;;;5051916;28;20437;-43
2022/10/08 14:15:31;;;;;;;4.70;1.67;;;;;;;;;;5051909;28;20408;-43
2022/10/08 14:17:57;;;;;;;2.20;1.60;;;;;;;;;;5051513;28;20458;-43
2022/10/08 14:20:23;;;;;;;3.83;1.40;;;;;;;;;;5051703;28;20739;-43
2022/10/08 14:22:49;;;;;;;3.50;2.73;;;;;;;;;;5051486;28;20399;-43
2022/10/08 14:25:21;;;;;;;4.50;1.60;;;;;;;;;;5051938;28;20769;-43
2022/10/08 14:27:47;;;;;;;3.33;1.43;;;;;;;;;;5052055;28;20795;-43
2022/10/08 14:30:13;;;;;;;4.50;2.00;;;;;;;;;;5051588;28;20402;-43
2022/10/08 14:32:39;;;;;;;3.40;1.90;;;;;;;;;;5051917;28;20965;-43
2022/10/08 14:35:05;;;;;;;2.33;1.80;;;;;;;;;;5051807;28;20500;-43
2022/10/08 14:37:32;;;;;;;3.60;1.70;;;;;;;;;;5051258;28;20452;-43
2022/10/08 14:39:58;;;;;;;5.90;1.73;;;;;;;;;;5051684;28;20813;-43
2022/10/08 14:42:24;;;;;;;6.60;1.80;;;;;;;;;;5051595;28;20519;-44
2022/10/08 14:44:52;;;;;;;3.63;1.43;;;;;;;;;;5051670;28;20404;-43
2022/10/08 14:47:18;;;;;;;7.30;1.53;;;;;;;;;;5051634;28;20398;-43
2022/10/08 14:49:44;;;;;;;4.77;1.77;;;;;;;;;;5040444;28;20472;-43
2022/10/08 14:52:10;;;;;;;5.17;1.40;;;;;;;;;;5030854;28;20433;-43
2022/10/08 14:54:36;;;;;;;4.67;2.00;;;;;;;;;;5031912;28;20399;-44